Time;durP1;ratioP1;P1;durP2;ratioP2;P2;SDS_P1;SDS_P2;PMS_P1;PMS_P2;Temp;Humidity;BMP_temperature;BMP_pressure;BME280_temperature;BME280_humidity;BME280_pressure;Samples;Min_cycle;Max_cycle;Signal;HPM_P1;HPM_P2
2021/09/16 00:00:09;;;;;;;8.82;5.15;;;15.90;99.90;;;;;;5045285;28;20051;-48
2021/09/16 00:02:35;;;;;;;7.78;4.82;;;16.00;99.90;;;;;;5038476;28;20063;-48
2021/09/16 00:05:00;;;;;;;8.23;3.85;;;15.90;99.90;;;;;;5045827;28;20057;-48
2021/09/16 00:07:26;;;;;;;6.88;4.25;;;15.90;99.90;;;;;;5034801;28;20032;-49
2021/09/16 00:09:52;;;;;;;8.02;4.35;;;15.90;99.90;;;;;;5033743;28;20100;-51
2021/09/16 00:12:17;;;;;;;9.43;4.32;;;15.90;99.90;;;;;;5041085;28;20110;-48
2021/09/16 00:14:43;;;;;;;6.20;4.15;;;15.90;99.90;;;;;;5041641;28;20351;-48
2021/09/16 00:17:09;;;;;;;5.07;3.90;;;15.90;99.90;;;;;;5040022;28;20069;-49
2021/09/16 00:19:35;;;;;;;6.57;4.10;;;15.90;99.90;;;;;;5044756;28;20033;-50
2021/09/16 00:22:01;;;;;;;9.30;4.30;;;15.80;99.90;;;;;;5038873;28;20484;-50
2021/09/16 00:24:26;;;;;;;9.23;4.57;;;15.90;99.90;;;;;;5040254;28;20025;-52
2021/09/16 00:26:52;;;;;;;7.80;3.88;;;15.90;99.90;;;;;;5040177;28;20365;-51
2021/09/16 00:29:17;;;;;;;7.15;3.63;;;15.90;99.90;;;;;;5041089;28;20104;-49
2021/09/16 00:31:43;;;;;;;4.50;3.75;;;15.80;99.90;;;;;;5042055;28;20037;-48
2021/09/16 00:34:08;;;;;;;5.20;3.78;;;15.90;99.90;;;;;;5039608;28;20034;-50
2021/09/16 00:36:34;;;;;;;7.10;4.13;;;15.80;99.90;;;;;;5038713;28;20056;-50
2021/09/16 00:38:59;;;;;;;7.13;4.43;;;15.90;99.90;;;;;;5032815;28;20036;-48
2021/09/16 00:41:28;;;;;;;10.63;4.80;;;15.90;99.90;;;;;;5029885;28;20368;-48
2021/09/16 00:43:54;;;;;;;5.05;3.65;;;15.80;99.90;;;;;;5029949;28;20506;-48
2021/09/16 00:46:20;;;;;;;6.28;4.55;;;15.80;99.90;;;;;;5029555;28;20075;-47
2021/09/16 00:48:46;;;;;;;7.25;4.53;;;15.90;99.90;;;;;;5029757;28;20025;-49
2021/09/16 00:51:12;;;;;;;9.43;4.60;;;15.90;99.90;;;;;;5030158;28;20025;-54
2021/09/16 00:53:39;;;;;;;6.65;4.05;;;15.90;99.90;;;;;;5028950;28;20057;-49
2021/09/16 00:56:06;;;;;;;7.38;3.83;;;15.90;99.90;;;;;;5029166;28;20025;-49
2021/09/16 00:58:37;;;;;;;8.77;4.80;;;15.80;99.90;;;;;;5028612;28;20071;-49
2021/09/16 01:01:03;;;;;;;8.05;4.88;;;15.90;99.90;;;;;;5031204;28;20372;-53
2021/09/16 01:03:29;;;;;;;8.15;4.95;;;15.80;99.90;;;;;;5033865;28;20187;-52
2021/09/16 01:05:55;;;;;;;9.07;4.57;;;15.90;99.90;;;;;;5036183;28;20105;-54
2021/09/16 01:08:21;;;;;;;6.50;4.60;;;15.80;99.90;;;;;;5036343;28;20130;-50
2021/09/16 01:10:47;;;;;;;13.18;5.25;;;15.80;99.90;;;;;;5036299;28;20033;-49
2021/09/16 01:13:14;;;;;;;6.35;4.90;;;15.90;99.90;;;;;;5036543;28;20060;-53
2021/09/16 01:15:39;;;;;;;8.25;5.45;;;15.80;99.90;;;;;;5035587;28;20036;-50
2021/09/16 01:18:05;;;;;;;8.00;4.80;;;15.80;99.90;;;;;;5035982;28;20017;-48
2021/09/16 01:20:31;;;;;;;10.40;4.95;;;15.80;99.90;;;;;;5036706;28;20438;-50
2021/09/16 01:22:57;;;;;;;10.18;4.95;;;15.80;99.90;;;;;;5036625;28;20026;-51
2021/09/16 01:25:28;;;;;;;5.20;4.32;;;15.80;99.90;;;;;;5035841;28;20044;-48
2021/09/16 01:27:58;;;;;;;9.00;4.38;;;15.80;99.90;;;;;;5036392;28;20052;-48
2021/09/16 01:30:24;;;;;;;4.90;4.43;;;15.80;99.90;;;;;;5036114;28;20033;-48
2021/09/16 01:32:51;;;;;;;7.75;4.63;;;15.80;99.90;;;;;;5018488;28;20034;-48
2021/09/16 01:35:18;;;;;;;7.32;4.57;;;15.80;99.90;;;;;;5035737;28;20040;-49
2021/09/16 01:37:44;;;;;;;7.53;5.20;;;15.80;99.90;;;;;;5036173;28;20472;-48
2021/09/16 01:40:10;;;;;;;6.03;4.78;;;15.80;99.90;;;;;;5036046;28;20022;-49
2021/09/16 01:42:41;;;;;;;6.25;4.25;;;15.80;99.90;;;;;;5035853;28;20503;-49
2021/09/16 01:45:14;;;;;;;5.13;4.40;;;15.70;99.90;;;;;;5035792;28;20026;-48
2021/09/16 01:47:42;;;;;;;6.10;4.15;;;15.70;99.90;;;;;;5036077;28;20029;-48
2021/09/16 01:50:08;;;;;;;8.88;5.32;;;15.70;99.90;;;;;;5036287;28;20071;-54
2021/09/16 01:52:34;;;;;;;8.45;4.45;;;15.70;99.90;;;;;;5036089;28;20118;-50
2021/09/16 01:54:59;;;;;;;8.02;4.03;;;15.70;99.90;;;;;;5035560;28;20087;-49
2021/09/16 01:57:25;;;;;;;7.22;5.22;;;15.70;99.90;;;;;;5035687;28;20024;-48
2021/09/16 01:59:50;;;;;;;7.47;5.13;;;15.60;99.90;;;;;;5036019;28;20107;-51
2021/09/16 02:02:16;;;;;;;6.88;4.60;;;15.70;99.90;;;;;;5035796;28;20645;-50
2021/09/16 02:04:41;;;;;;;6.68;4.68;;;15.60;99.90;;;;;;5035683;28;20017;-50
2021/09/16 02:07:07;;;;;;;7.40;4.72;;;15.60;99.90;;;;;;5035945;28;20049;-49
2021/09/16 02:09:32;;;;;;;5.07;4.40;;;15.60;99.90;;;;;;5035982;28;20307;-48
2021/09/16 02:11:58;;;;;;;6.78;5.10;;;15.60;99.90;;;;;;5033683;28;20029;-51
2021/09/16 02:14:23;;;;;;;6.53;4.15;;;15.60;99.90;;;;;;5032166;28;20033;-48
2021/09/16 02:16:49;;;;;;;7.28;4.40;;;15.60;99.90;;;;;;5032503;28;20032;-51
2021/09/16 02:19:15;;;;;;;9.05;3.90;;;15.50;99.90;;;;;;5032630;28;20018;-50
2021/09/16 02:21:40;;;;;;;7.45;3.65;;;15.50;99.90;;;;;;5032709;28;20116;-52
2021/09/16 02:24:06;;;;;;;5.55;3.42;;;15.50;99.90;;;;;;5031823;28;20132;-48
2021/09/16 02:26:31;;;;;;;10.63;4.32;;;15.40;99.90;;;;;;5014079;28;20025;-54
2021/09/16 02:28:57;;;;;;;7.88;3.53;;;15.40;99.90;;;;;;5032596;28;20100;-49
2021/09/16 02:31:23;;;;;;;4.10;3.08;;;15.40;99.90;;;;;;5032533;28;20645;-50
2021/09/16 02:33:48;;;;;;;5.13;2.53;;;15.40;99.90;;;;;;5032208;28;20124;-48
2021/09/16 02:36:14;;;;;;;5.57;2.33;;;15.30;99.90;;;;;;5031810;28;20187;-50
2021/09/16 02:38:40;;;;;;;8.73;2.50;;;15.30;99.90;;;;;;5032022;28;20025;-51
2021/09/16 02:41:06;;;;;;;3.33;1.88;;;15.30;99.90;;;;;;5032144;28;20363;-48
2021/09/16 02:43:31;;;;;;;4.18;2.05;;;15.30;99.90;;;;;;5032031;28;20101;-50
2021/09/16 02:45:57;;;;;;;3.72;2.15;;;15.30;99.90;;;;;;5031907;28;20080;-53
2021/09/16 02:48:23;;;;;;;3.15;1.75;;;15.30;99.90;;;;;;5032192;28;20594;-48
2021/09/16 02:50:48;;;;;;;5.40;2.42;;;15.20;99.90;;;;;;5032136;28;20029;-49
2021/09/16 02:53:14;;;;;;;3.80;1.50;;;15.20;99.90;;;;;;5031915;28;20036;-50
2021/09/16 02:55:40;;;;;;;3.67;1.75;;;15.20;99.90;;;;;;5031230;28;20030;-51
2021/09/16 02:58:06;;;;;;;4.72;1.70;;;15.20;99.90;;;;;;5031715;28;20071;-50
2021/09/16 03:00:31;;;;;;;4.18;1.90;;;15.10;99.90;;;;;;5031708;28;20029;-49
2021/09/16 03:02:57;;;;;;;5.95;1.50;;;15.20;99.90;;;;;;5013848;28;20026;-48
2021/09/16 03:05:23;;;;;;;1.33;1.10;;;15.10;99.90;;;;;;5031508;28;20029;-49
2021/09/16 03:07:48;;;;;;;4.28;1.60;;;15.10;99.90;;;;;;5031310;28;20576;-49
2021/09/16 03:10:14;;;;;;;2.53;1.30;;;15.10;99.90;;;;;;5031629;28;20411;-50
2021/09/16 03:12:41;;;;;;;6.38;1.58;;;15.10;99.90;;;;;;5031486;28;20075;-48
2021/09/16 03:15:08;;;;;;;7.90;2.53;;;15.00;99.90;;;;;;5012664;28;20121;-48
2021/09/16 03:17:33;;;;;;;4.15;1.40;;;14.90;99.90;;;;;;5030545;28;20049;-53
2021/09/16 03:19:59;;;;;;;1.30;1.10;;;15.00;99.90;;;;;;5031618;28;20080;-47
2021/09/16 03:22:25;;;;;;;4.47;1.17;;;14.90;99.90;;;;;;5030701;28;20432;-48
2021/09/16 03:24:50;;;;;;;2.67;1.00;;;14.90;99.90;;;;;;5029788;28;20043;-52
2021/09/16 03:27:16;;;;;;;3.63;1.45;;;14.90;99.90;;;;;;5030616;28;20071;-50
2021/09/16 03:29:41;;;;;;;5.35;1.30;;;14.90;99.90;;;;;;5031044;28;20053;-50
2021/09/16 03:32:07;;;;;;;4.93;1.33;;;14.90;99.90;;;;;;5030989;28;20438;-48
2021/09/16 03:34:33;;;;;;;2.13;1.42;;;14.80;99.90;;;;;;5030480;28;20045;-48
2021/09/16 03:36:59;;;;;;;2.72;1.10;;;14.80;99.90;;;;;;5013262;28;20024;-51
2021/09/16 03:39:25;;;;;;;3.97;0.98;;;14.80;99.90;;;;;;5031086;28;20518;-47
2021/09/16 03:41:50;;;;;;;4.68;1.45;;;14.80;99.90;;;;;;5030735;28;20454;-49
2021/09/16 03:44:16;;;;;;;4.20;1.20;;;14.80;99.90;;;;;;5030693;28;20021;-48
2021/09/16 03:46:42;;;;;;;2.33;1.05;;;14.80;99.90;;;;;;5030293;28;20026;-48
2021/09/16 03:49:07;;;;;;;6.22;1.25;;;14.80;99.90;;;;;;5031174;28;20032;-49
2021/09/16 03:51:33;;;;;;;3.50;0.95;;;14.70;99.90;;;;;;5030891;28;20033;-47
2021/09/16 03:53:58;;;;;;;3.22;1.77;;;14.70;99.90;;;;;;5030924;28;20026;-47
2021/09/16 03:56:24;;;;;;;4.97;1.17;;;14.70;99.90;;;;;;5030289;28;20392;-54
2021/09/16 03:58:50;;;;;;;3.35;0.82;;;14.70;99.90;;;;;;5030704;28;20033;-47
2021/09/16 04:01:15;;;;;;;1.58;0.95;;;14.70;99.90;;;;;;5030618;28;20057;-50
2021/09/16 04:03:41;;;;;;;2.22;1.02;;;14.60;99.90;;;;;;5030479;28;20025;-49
2021/09/16 04:06:06;;;;;;;3.17;1.08;;;14.60;99.90;;;;;;5030155;28;20049;-47
2021/09/16 04:08:32;;;;;;;1.92;1.20;;;14.60;99.90;;;;;;5030110;28;20025;-47
2021/09/16 04:10:57;;;;;;;3.47;1.15;;;14.60;99.90;;;;;;5030620;28;20502;-48
2021/09/16 04:13:23;;;;;;;2.72;0.85;;;14.50;99.90;;;;;;5030259;28;20036;-47
2021/09/16 04:15:49;;;;;;;4.53;1.25;;;14.50;99.90;;;;;;5029514;28;20380;-49
2021/09/16 04:18:14;;;;;;;1.55;0.93;;;14.50;99.90;;;;;;5030139;28;20435;-49
2021/09/16 04:20:40;;;;;;;4.25;0.95;;;14.50;99.90;;;;;;5030533;28;20029;-50
2021/09/16 04:23:06;;;;;;;5.40;1.50;;;14.50;99.90;;;;;;5012659;28;20120;-48
2021/09/16 04:25:31;;;;;;;4.90;1.00;;;14.50;99.90;;;;;;5029378;28;20372;-48
2021/09/16 04:27:57;;;;;;;5.10;0.85;;;14.50;99.90;;;;;;5030113;28;20044;-49
2021/09/16 04:30:23;;;;;;;8.38;1.23;;;14.50;99.90;;;;;;5029911;28;20025;-50
2021/09/16 04:32:48;;;;;;;1.83;1.02;;;14.40;99.90;;;;;;5029899;28;20087;-52
2021/09/16 04:35:14;;;;;;;2.55;0.90;;;14.40;99.90;;;;;;5028999;28;20044;-48
2021/09/16 04:37:39;;;;;;;3.10;0.82;;;14.40;99.90;;;;;;5012161;28;20028;-50
2021/09/16 04:40:06;;;;;;;4.03;1.05;;;14.40;99.90;;;;;;5029902;28;20106;-48
2021/09/16 04:42:32;;;;;;;5.93;0.93;;;14.40;99.90;;;;;;5029909;28;20022;-51
2021/09/16 04:44:57;;;;;;;4.38;1.00;;;14.40;99.90;;;;;;5029338;28;20091;-48
2021/09/16 04:47:23;;;;;;;5.72;1.17;;;14.30;99.90;;;;;;5030428;28;20029;-49
2021/09/16 04:49:49;;;;;;;2.85;1.08;;;14.30;99.90;;;;;;5030162;28;20064;-51
2021/09/16 04:52:15;;;;;;;7.88;1.17;;;14.30;99.90;;;;;;5030068;28;20034;-47
2021/09/16 04:54:41;;;;;;;1.10;0.90;;;14.30;99.90;;;;;;5029404;28;20032;-48
2021/09/16 04:57:07;;;;;;;3.25;1.40;;;14.30;99.90;;;;;;5029813;28;20021;-48
2021/09/16 04:59:33;;;;;;;4.28;1.30;;;14.30;99.90;;;;;;5029631;28;20029;-47
2021/09/16 05:01:58;;;;;;;2.92;0.77;;;14.30;99.90;;;;;;5029841;28;20022;-48
2021/09/16 05:04:24;;;;;;;3.47;1.27;;;14.30;99.90;;;;;;5029457;28;20535;-48
2021/09/16 05:06:49;;;;;;;5.90;1.48;;;14.30;99.90;;;;;;5029375;28;20021;-48
2021/09/16 05:09:15;;;;;;;4.00;1.10;;;14.30;99.90;;;;;;5029689;28;20133;-48
2021/09/16 05:11:42;;;;;;;3.03;0.98;;;14.30;99.90;;;;;;5029675;28;20426;-50
2021/09/16 05:14:08;;;;;;;2.97;1.10;;;14.30;99.90;;;;;;5011329;28;20030;-46
2021/09/16 05:16:35;;;;;;;2.33;1.02;;;14.20;99.90;;;;;;5029442;28;20025;-51
2021/09/16 05:19:01;;;;;;;4.85;1.73;;;14.20;99.90;;;;;;5029817;28;20092;-47
2021/09/16 05:21:27;;;;;;;4.30;1.05;;;14.30;99.90;;;;;;5029615;28;20026;-47
2021/09/16 05:23:53;;;;;;;2.75;1.10;;;14.30;99.90;;;;;;5028973;28;20104;-50
2021/09/16 05:26:18;;;;;;;4.13;1.20;;;14.30;99.90;;;;;;5028839;28;20033;-48
2021/09/16 05:28:44;;;;;;;2.72;1.10;;;14.30;99.90;;;;;;5029382;28;20040;-46
2021/09/16 05:31:10;;;;;;;3.78;1.25;;;14.30;99.90;;;;;;5029433;28;20052;-46
2021/09/16 05:33:36;;;;;;;5.07;2.90;;;14.30;99.90;;;;;;5029556;28;20443;-49
2021/09/16 05:36:02;;;;;;;6.07;2.15;;;14.30;99.90;;;;;;5028885;28;20128;-47
2021/09/16 05:38:28;;;;;;;2.65;1.10;;;14.30;99.90;;;;;;5029194;28;20506;-47
2021/09/16 05:40:54;;;;;;;5.13;1.95;;;14.30;99.90;;;;;;5011368;28;20037;-48
2021/09/16 05:43:20;;;;;;;4.07;1.98;;;14.30;99.90;;;;;;5029139;28;20029;-46
2021/09/16 05:45:46;;;;;;;8.05;1.88;;;14.30;99.90;;;;;;5029199;28;20057;-49
2021/09/16 05:48:11;;;;;;;2.20;1.50;;;14.30;99.90;;;;;;5032904;28;20025;-49
2021/09/16 05:50:37;;;;;;;3.63;1.75;;;14.30;99.90;;;;;;5032938;28;20030;-48
2021/09/16 05:53:03;;;;;;;7.28;2.15;;;14.30;99.90;;;;;;5033036;28;20025;-51
2021/09/16 05:55:29;;;;;;;3.08;2.08;;;14.30;99.90;;;;;;5032431;28;20030;-48
2021/09/16 05:57:55;;;;;;;4.00;1.60;;;14.30;99.90;;;;;;5015058;28;20021;-47
2021/09/16 06:00:23;;;;;;;3.25;1.90;;;14.30;99.90;;;;;;5032924;28;20022;-47
2021/09/16 06:02:48;;;;;;;2.70;2.20;;;14.30;99.90;;;;;;5032041;28;20100;-47
2021/09/16 06:05:14;;;;;;;6.30;2.97;;;14.30;99.90;;;;;;5031468;28;20127;-47
2021/09/16 06:07:40;;;;;;;6.07;2.30;;;14.30;99.90;;;;;;5031755;28;20465;-50
2021/09/16 06:10:06;;;;;;;2.58;2.33;;;14.30;99.90;;;;;;5014212;28;20025;-50
2021/09/16 06:12:32;;;;;;;4.68;2.50;;;14.30;99.90;;;;;;5031795;28;20033;-52
2021/09/16 06:14:58;;;;;;;4.85;2.50;;;14.30;99.90;;;;;;5013379;28;20033;-47
2021/09/16 06:17:24;;;;;;;5.95;2.35;;;14.30;99.90;;;;;;5032017;28;20036;-50
2021/09/16 06:19:49;;;;;;;3.97;2.63;;;14.40;99.90;;;;;;5032409;28;20100;-50
2021/09/16 06:22:16;;;;;;;2.90;2.45;;;14.40;99.90;;;;;;5032375;28;20032;-47
2021/09/16 06:24:41;;;;;;;5.85;3.65;;;14.40;99.90;;;;;;5031678;28;20487;-48
2021/09/16 06:27:07;;;;;;;7.47;3.30;;;14.40;99.90;;;;;;5032143;28;20079;-47
2021/09/16 06:29:33;;;;;;;5.75;3.28;;;14.40;99.90;;;;;;5032366;28;20033;-48
2021/09/16 06:31:58;;;;;;;5.00;2.63;;;14.40;99.90;;;;;;5032113;28;20044;-47
2021/09/16 06:34:25;;;;;;;5.22;2.88;;;14.40;99.90;;;;;;5032055;28;20037;-47
2021/09/16 06:36:51;;;;;;;4.15;3.35;;;14.40;99.90;;;;;;5031901;28;20033;-47
2021/09/16 06:39:16;;;;;;;4.88;2.55;;;14.40;99.90;;;;;;5014445;28;20403;-50
2021/09/16 06:41:42;;;;;;;6.93;3.10;;;14.50;99.90;;;;;;5014120;28;20032;-51
2021/09/16 06:44:08;;;;;;;4.88;3.03;;;14.50;99.90;;;;;;5032262;28;20488;-49
2021/09/16 06:46:33;;;;;;;7.32;3.00;;;14.50;99.90;;;;;;5031854;28;20174;-48
2021/09/16 06:48:59;;;;;;;5.68;3.10;;;14.40;99.90;;;;;;5030892;28;20436;-47
2021/09/16 06:51:26;;;;;;;4.72;3.30;;;14.50;99.90;;;;;;5043923;28;20112;-49
2021/09/16 06:53:52;;;;;;;5.72;3.63;;;14.50;99.90;;;;;;5051684;28;20103;-48
2021/09/16 06:56:17;;;;;;;8.13;3.25;;;14.60;99.90;;;;;;5051129;28;20028;-48
2021/09/16 06:58:43;;;;;;;5.85;3.63;;;14.60;99.90;;;;;;5050868;28;20573;-48
2021/09/16 07:01:08;;;;;;;6.47;3.10;;;14.60;99.90;;;;;;5033214;28;20035;-48
2021/09/16 07:03:34;;;;;;;3.63;2.90;;;14.60;99.90;;;;;;5051478;28;20025;-51
2021/09/16 07:06:00;;;;;;;5.18;2.80;;;14.70;99.90;;;;;;5051190;28;20021;-47
2021/09/16 07:08:25;;;;;;;4.10;2.92;;;14.70;99.90;;;;;;5051445;28;20483;-48
2021/09/16 07:10:51;;;;;;;6.88;3.28;;;14.70;99.90;;;;;;5051312;28;20020;-49
2021/09/16 07:13:17;;;;;;;6.10;3.28;;;14.80;99.90;;;;;;5051506;28;20029;-50
2021/09/16 07:15:42;;;;;;;7.43;3.40;;;14.80;99.90;;;;;;5033389;28;20048;-49
2021/09/16 07:18:08;;;;;;;4.40;3.10;;;14.80;99.90;;;;;;5051473;28;20033;-49
2021/09/16 07:20:34;;;;;;;3.28;3.00;;;14.90;99.90;;;;;;5033540;28;20033;-48
2021/09/16 07:22:59;;;;;;;4.85;3.40;;;14.90;99.90;;;;;;5051457;28;20025;-47
2021/09/16 07:25:25;;;;;;;7.30;3.60;;;14.90;99.90;;;;;;5050410;28;20118;-51
2021/09/16 07:27:50;;;;;;;5.60;3.22;;;14.90;99.90;;;;;;5051093;28;20120;-50
2021/09/16 07:30:16;;;;;;;7.72;2.85;;;14.90;99.90;;;;;;5051143;28;20033;-50
2021/09/16 07:32:42;;;;;;;3.35;3.05;;;14.90;99.90;;;;;;5033126;28;20395;-47
2021/09/16 07:35:08;;;;;;;7.13;3.60;;;14.90;99.90;;;;;;5050762;28;20025;-48
2021/09/16 07:37:34;;;;;;;7.25;3.25;;;14.90;99.90;;;;;;5050988;28;20113;-49
2021/09/16 07:40:00;;;;;;;7.47;3.90;;;15.00;99.90;;;;;;5050956;28;20029;-47
2021/09/16 07:42:26;;;;;;;4.97;3.10;;;15.00;99.90;;;;;;5051182;28;20028;-50
2021/09/16 07:44:52;;;;;;;4.30;3.53;;;15.00;99.90;;;;;;5050744;28;20029;-47
2021/09/16 07:47:17;;;;;;;9.20;3.45;;;15.00;99.90;;;;;;5051250;28;20057;-49
2021/09/16 07:49:45;;;;;;;5.65;3.38;;;15.00;99.90;;;;;;5033042;28;20040;-47
2021/09/16 07:52:11;;;;;;;5.47;2.97;;;15.00;99.90;;;;;;5050801;28;20029;-49
2021/09/16 07:54:37;;;;;;;3.05;2.83;;;15.00;99.90;;;;;;5050128;28;20159;-48
2021/09/16 07:57:03;;;;;;;3.97;3.45;;;15.00;99.90;;;;;;5050637;28;20072;-52
2021/09/16 07:59:29;;;;;;;5.20;3.15;;;15.00;99.90;;;;;;5050767;28;20032;-48
2021/09/16 08:01:54;;;;;;;5.47;3.50;;;15.10;99.90;;;;;;5050606;28;20025;-49
2021/09/16 08:04:20;;;;;;;4.53;3.35;;;15.10;99.90;;;;;;5050528;28;20025;-48
2021/09/16 08:06:46;;;;;;;5.55;3.67;;;15.10;99.90;;;;;;5050050;28;20040;-47
2021/09/16 08:09:11;;;;;;;5.68;3.70;;;15.20;99.90;;;;;;5050265;28;20039;-51
2021/09/16 08:11:38;;;;;;;5.65;4.00;;;15.30;99.90;;;;;;5049660;28;20029;-48
2021/09/16 08:14:06;;;;;;;4.30;3.65;;;15.30;99.90;;;;;;5050433;28;20021;-50
2021/09/16 08:16:31;;;;;;;4.20;3.78;;;15.30;99.90;;;;;;5049911;28;20041;-51
2021/09/16 08:18:57;;;;;;;3.53;3.17;;;15.40;99.90;;;;;;5050472;28;20043;-53
2021/09/16 08:21:23;;;;;;;4.75;3.90;;;15.30;99.90;;;;;;5050596;28;20033;-49
2021/09/16 08:23:49;;;;;;;6.75;3.60;;;15.40;99.90;;;;;;5050159;28;20104;-47
2021/09/16 08:26:16;;;;;;;6.43;3.17;;;15.40;99.90;;;;;;5049728;28;20527;-47
2021/09/16 08:28:41;;;;;;;5.85;3.45;;;15.40;99.90;;;;;;5050294;28;20044;-51
2021/09/16 08:31:07;;;;;;;4.38;3.67;;;15.50;99.90;;;;;;5050147;28;20029;-51
2021/09/16 08:33:33;;;;;;;4.35;3.40;;;15.60;99.90;;;;;;5050171;28;20380;-49
2021/09/16 08:35:59;;;;;;;4.95;3.00;;;15.60;99.90;;;;;;5031825;28;20036;-48
2021/09/16 08:38:24;;;;;;;4.70;3.50;;;15.70;99.90;;;;;;5049932;28;20021;-48
2021/09/16 08:40:50;;;;;;;5.78;3.67;;;15.70;99.90;;;;;;5049978;28;20032;-51
2021/09/16 08:43:19;;;;;;;7.80;3.60;;;15.80;99.90;;;;;;5049943;28;20028;-50
2021/09/16 08:45:45;;;;;;;6.57;3.72;;;15.80;99.90;;;;;;5049827;28;20107;-51
2021/09/16 08:48:11;;;;;;;6.18;3.35;;;15.90;99.90;;;;;;5050103;28;20032;-50
2021/09/16 08:50:37;;;;;;;6.07;3.42;;;16.00;99.90;;;;;;5049892;28;20025;-49
2021/09/16 08:53:03;;;;;;;7.00;3.60;;;16.00;99.90;;;;;;5049698;28;20099;-52
2021/09/16 08:55:28;;;;;;;5.50;3.80;;;16.10;99.90;;;;;;5049414;28;20103;-48
2021/09/16 08:57:58;;;;;;;4.22;3.40;;;16.10;99.90;;;;;;5049592;28;20025;-47
2021/09/16 09:00:25;;;;;;;4.28;3.55;;;16.20;99.90;;;;;;5049687;28;20099;-51
2021/09/16 09:02:52;;;;;;;4.70;3.60;;;16.30;99.90;;;;;;5049752;28;20521;-49
2021/09/16 09:05:19;;;;;;;4.93;4.00;;;16.40;99.90;;;;;;5049530;28;20041;-49
2021/09/16 09:07:47;;;;;;;5.15;3.70;;;16.50;99.90;;;;;;5049654;28;20055;-47
2021/09/16 09:10:33;;;;;;;3.92;3.00;;;16.50;99.90;;;;;;5049561;28;20128;-51
2021/09/16 09:12:59;;;;;;;4.75;3.55;;;16.60;99.90;;;;;;5031775;28;20025;-51
2021/09/16 09:15:26;;;;;;;5.05;2.65;;;16.60;99.90;;;;;;5049141;28;20025;-52
2021/09/16 09:18:10;;;;;;;3.97;3.63;;;16.60;99.90;;;;;;5049886;28;20033;-47
2021/09/16 09:20:55;;;;;;;4.57;2.65;;;16.70;99.90;;;;;;5049647;28;20093;-47
2021/09/16 09:23:25;;;;;;;3.63;2.55;;;16.70;99.90;;;;;;5053482;28;20021;-47
2021/09/16 09:25:51;;;;;;;3.58;2.42;;;16.70;99.90;;;;;;5053148;28;20104;-48
2021/09/16 09:28:28;;;;;;;5.60;2.92;;;16.80;99.90;;;;;;5053393;28;20040;-47
2021/09/16 09:30:53;;;;;;;2.83;2.03;;;16.90;99.90;;;;;;5053474;28;20025;-48
2021/09/16 09:33:27;;;;;;;4.07;2.58;;;17.00;99.90;;;;;;5053569;28;20028;-47
2021/09/16 09:35:52;;;;;;;4.75;2.38;;;17.00;99.90;;;;;;5053294;28;20032;-48
2021/09/16 09:38:24;;;;;;;7.60;2.70;;;17.00;99.90;;;;;;5053421;28;20032;-52
2021/09/16 09:40:56;;;;;;;2.72;2.35;;;17.00;99.90;;;;;;5053423;28;20100;-50
2021/09/16 09:43:21;;;;;;;4.85;2.85;;;17.00;99.90;;;;;;5053385;28;20464;-49
2021/09/16 09:46:10;;;;;;;4.40;2.42;;;17.00;99.90;;;;;;5053251;28;20029;-49
2021/09/16 09:48:56;;;;;;;5.78;2.17;;;17.10;99.90;;;;;;5053093;28;20032;-50
2021/09/16 09:51:44;;;;;;;4.63;2.85;;;17.10;99.90;;;;;;5053223;28;20395;-51
2021/09/16 09:54:24;;;;;;;3.40;2.28;;;17.20;99.90;;;;;;5035251;28;20040;-50
2021/09/16 09:57:19;;;;;;;4.45;2.38;;;17.20;99.90;;;;;;5052535;28;20052;-48
2021/09/16 10:00:09;;;;;;;4.03;2.17;;;17.30;99.90;;;;;;5035761;28;20040;-47
2021/09/16 10:02:42;;;;;;;6.32;2.28;;;17.40;99.90;;;;;;5052936;28;20021;-52
2021/09/16 10:05:29;;;;;;;2.45;2.10;;;17.50;99.90;;;;;;5052341;28;20483;-51
2021/09/16 10:07:57;;;;;;;7.25;2.08;;;17.50;99.90;;;;;;5052760;28;20021;-47
2021/09/16 10:10:24;;;;;;;4.80;1.95;;;17.60;99.90;;;;;;5035058;28;20021;-47
2021/09/16 10:12:52;;;;;;;8.68;2.45;;;17.60;99.90;;;;;;5052768;28;20614;-51
2021/09/16 10:15:20;;;;;;;3.58;1.95;;;17.60;99.90;;;;;;5052704;28;20086;-52
2021/09/16 10:17:46;;;;;;;5.65;2.05;;;17.70;99.90;;;;;;5052777;28;20487;-51
2021/09/16 10:20:16;;;;;;;5.25;2.15;;;17.70;99.90;;;;;;5052386;28;20025;-50
2021/09/16 10:22:49;;;;;;;3.92;1.80;;;17.60;99.90;;;;;;5052529;28;20056;-50
2021/09/16 10:25:18;;;;;;;5.03;2.38;;;17.50;99.90;;;;;;5051857;28;20082;-48
2021/09/16 10:27:54;;;;;;;6.57;2.65;;;17.50;99.90;;;;;;5052605;28;20036;-52
2021/09/16 10:30:23;;;;;;;6.65;2.33;;;17.40;99.90;;;;;;5052521;28;20036;-49
2021/09/16 10:33:03;;;;;;;4.25;2.17;;;17.40;99.90;;;;;;5051560;28;20055;-54
2021/09/16 10:35:29;;;;;;;4.90;1.83;;;17.30;99.90;;;;;;5051958;28;20025;-49
2021/09/16 10:37:55;;;;;;;4.45;1.50;;;17.40;99.90;;;;;;5052363;28;20043;-53
2021/09/16 10:40:33;;;;;;;2.88;1.45;;;17.40;99.90;;;;;;5052359;28;20562;-48
2021/09/16 10:43:01;;;;;;;2.67;2.00;;;17.50;99.90;;;;;;5052360;28;20027;-51
2021/09/16 10:45:38;;;;;;;9.93;2.30;;;17.50;99.90;;;;;;5052186;28;20495;-47
2021/09/16 10:48:12;;;;;;;5.68;2.00;;;17.40;99.90;;;;;;5052229;28;20523;-51
2021/09/16 10:50:50;;;;;;;4.90;1.83;;;17.30;99.90;;;;;;5052263;28;20033;-51
2021/09/16 10:53:30;;;;;;;4.68;2.22;;;17.20;99.90;;;;;;5052067;28;20475;-50
2021/09/16 10:55:57;;;;;;;3.33;1.55;;;17.20;99.90;;;;;;5051488;28;20442;-50
2021/09/16 10:58:25;;;;;;;3.65;1.92;;;17.20;99.90;;;;;;5033974;28;20082;-49
2021/09/16 11:00:51;;;;;;;4.32;1.95;;;17.30;99.90;;;;;;5051824;28;20045;-53
2021/09/16 11:03:16;;;;;;;6.57;2.28;;;17.30;99.90;;;;;;5033972;28;20067;-52
2021/09/16 11:05:46;;;;;;;3.53;2.38;;;17.50;99.90;;;;;;5051431;28;20112;-52
2021/09/16 11:08:14;;;;;;;4.25;2.10;;;17.60;99.90;;;;;;5033665;28;20024;-50
2021/09/16 11:10:39;;;;;;;4.82;1.60;;;17.70;99.90;;;;;;5051710;28;20403;-52
2021/09/16 11:13:30;;;;;;;7.28;2.45;;;17.90;99.90;;;;;;5051746;28;20028;-49
2021/09/16 11:15:55;;;;;;;2.30;1.42;;;18.00;99.90;;;;;;5050968;28;20057;-51
2021/09/16 11:18:22;;;;;;;4.38;1.58;;;18.00;99.90;;;;;;5051344;28;20063;-51
2021/09/16 11:20:55;;;;;;;2.58;1.45;;;18.10;99.90;;;;;;5051376;28;20025;-49
2021/09/16 11:23:21;;;;;;;3.42;1.33;;;18.10;99.90;;;;;;5051596;28;20104;-50
2021/09/16 11:25:49;;;;;;;5.63;2.80;;;18.20;99.90;;;;;;5050829;28;20115;-49
2021/09/16 11:28:15;;;;;;;6.03;1.63;;;18.10;99.90;;;;;;5033177;28;20491;-52
2021/09/16 11:30:43;;;;;;;3.15;1.42;;;18.10;99.90;;;;;;5033364;28;20064;-48
2021/09/16 11:33:14;;;;;;;2.65;1.17;;;18.00;99.90;;;;;;5033249;28;20491;-50
2021/09/16 11:35:39;;;;;;;4.60;1.50;;;18.00;99.90;;;;;;5050934;28;20060;-48
2021/09/16 11:38:06;;;;;;;3.47;1.02;;;17.90;99.90;;;;;;5051415;28;20051;-52
2021/09/16 11:40:38;;;;;;;5.28;1.60;;;17.80;99.90;;;;;;5051284;28;20035;-49
2021/09/16 11:43:09;;;;;;;3.10;1.30;;;17.70;99.90;;;;;;5051288;28;20082;-50
2021/09/16 11:45:43;;;;;;;6.43;1.95;;;17.70;99.90;;;;;;5051061;28;20047;-48
2021/09/16 11:48:17;;;;;;;6.80;1.42;;;17.60;99.90;;;;;;5051403;28;20069;-50
2021/09/16 11:50:51;;;;;;;0.93;0.85;;;17.60;99.90;;;;;;5051033;28;20147;-49
2021/09/16 11:53:26;;;;;;;3.20;1.20;;;17.50;99.90;;;;;;5050711;28;20096;-51
2021/09/16 11:56:00;;;;;;;3.60;1.55;;;17.40;99.90;;;;;;5050497;28;20095;-48
2021/09/16 11:58:34;;;;;;;4.35;1.40;;;17.40;99.90;;;;;;5050871;28;20039;-49
2021/09/16 12:01:00;;;;;;;6.25;1.85;;;17.30;99.90;;;;;;5051012;28;20025;-50
2021/09/16 12:03:32;;;;;;;4.60;1.45;;;17.30;99.90;;;;;;5032833;28;20021;-53
2021/09/16 12:06:13;;;;;;;2.60;1.23;;;17.30;99.90;;;;;;5050361;28;20031;-49
2021/09/16 12:08:44;;;;;;;1.70;1.15;;;17.30;99.90;;;;;;5050498;28;20053;-54
2021/09/16 12:11:14;;;;;;;5.70;1.42;;;17.30;99.90;;;;;;5032719;28;20024;-49
2021/09/16 12:13:41;;;;;;;4.13;1.05;;;17.40;99.90;;;;;;5050726;28;20063;-51
2021/09/16 12:16:12;;;;;;;2.95;1.50;;;17.40;99.90;;;;;;5050343;28;20064;-56
2021/09/16 12:18:44;;;;;;;3.28;1.17;;;17.40;99.90;;;;;;5050483;28;20013;-51
2021/09/16 12:21:18;;;;;;;3.03;1.70;;;17.50;99.90;;;;;;5050440;28;20116;-51
2021/09/16 12:23:49;;;;;;;3.00;1.33;;;17.60;99.90;;;;;;5050280;28;20047;-50
2021/09/16 12:26:23;;;;;;;5.07;1.50;;;17.60;99.90;;;;;;5049732;28;20029;-49
2021/09/16 12:28:53;;;;;;;2.92;1.00;;;17.70;99.90;;;;;;5050224;28;20047;-51
2021/09/16 12:31:29;;;;;;;2.28;1.27;;;17.80;99.90;;;;;;5050325;28;20044;-57
2021/09/16 12:34:14;;;;;;;5.40;1.80;;;17.80;99.90;;;;;;5032310;28;20471;-49
2021/09/16 12:36:51;;;;;;;4.45;1.63;;;17.70;99.90;;;;;;5049901;28;20105;-56
2021/09/16 12:39:17;;;;;;;2.65;1.00;;;17.70;99.90;;;;;;5050083;28;20021;-53
2021/09/16 12:41:49;;;;;;;6.75;1.98;;;17.60;99.90;;;;;;5050533;28;20079;-51
2021/09/16 12:44:14;;;;;;;2.55;1.08;;;17.70;99.90;;;;;;5050672;28;20430;-52
2021/09/16 12:47:01;;;;;;;5.57;1.35;;;17.70;99.90;;;;;;5049696;28;20033;-52